• Join FlightAware (Why Join?)
  • Login
  • US Flag 
04:45PM EST


 

Airport Tracker/Info


-or-


 

Live Flight TrackerFlight Track Log ✈ EJA941 ✈ 22-Aug-2013 ✈ KBWI - KLIT

Flight Track Log - Related Links

Times and Time Zones

All times are in EDT time to prevent confusion due to time zone crossing. See the EJA941 flight status page for this flight to view local times or setup timezone preferences in your user account.

Time Position Orientation Groundspeed Altitude Reporting Facility
EDT Latitude Longitude Course Direction KTS MPH feet Rate Location/Type
09:32AM 39.1833 -76.7833 270° West 242 278 4,800  Level Potomac TRACON
09:33AM 39.1833 -76.8833 270° West 261 300 7,900 3,240 Climbing Potomac TRACON
09:34AM 39.2167 -76.9667 297° West 270 311 11,300 2,640 Climbing Potomac TRACON
09:36AM 39.2119 -77.1481 268° West 228 262 16,500 1,800 Climbing Washington Center
09:37AM 39.1567 -77.2272 228° Southwest 255 293 17,100 900 Climbing Washington Center
09:38AM 39.0969 -77.3219 231° Southwest 307 353 18,400 1,140 Climbing Washington Center
09:39AM 39.0389 -77.4331 236° Southwest 354 407 19,500 1,140 Climbing Washington Center
09:40AM 39.0100 -77.5497 252° West 374 430 20,700 1,380 Climbing Washington Center
09:41AM 38.9761 -77.7011 254° West 395 455 22,300 1,380 Climbing Washington Center
09:42AM 38.9447 -77.8228 252° West 400 460 23,600 1,260 Climbing Washington Center
09:43AM 38.9083 -77.9844 254° West 415 478 24,900 1,320 Climbing Washington Center
09:44AM 38.8742 -78.1247 253° West 415 478 26,300 1,320 Climbing Washington Center
09:45AM 38.8500 -78.2758 258° West 421 484 27,500 1,200 Climbing Washington Center
09:46AM 38.8506 -78.4358 270° West 434 499 28,700 1,140 Climbing Washington Center
09:47AM 38.8489 -78.5958 269° West 445 512 29,900 1,260 Climbing Washington Center
09:48AM 38.8467 -78.7636 269° West 458 527 31,300 1,560 Climbing Washington Center
09:49AM 38.8442 -78.9286 269° West 465 535 33,000 1,620 Climbing Washington Center
09:50AM 38.8414 -79.0964 269° West 465 535 34,600 1,620 Climbing Washington Center
09:51AM 38.8303 -79.2639 265° West 470 541 36,300 1,680 Climbing Washington Center
09:52AM 38.8003 -79.4250 257° West 480 552 38,000 1,440 Climbing Washington Center
09:53AM 38.7767 -79.5756 259° West 480 552 39,300 960 Climbing Washington Center
09:54AM 38.7436 -79.7442 256° West 485 558 40,000 300 Climbing Washington Center
09:55AM 38.7128 -79.9153 257° West 485 558 40,000  Level Washington Center
09:56AM 38.6767 -80.0856 255° West 505 581 40,000  Level Indianapolis Center
09:57AM 38.6358 -80.2994 256° West 512 589 40,000  Level Indianapolis Center
09:58AM 38.6042 -80.4781 257° West 514 592 40,000  Level Indianapolis Center
09:59AM 38.5706 -80.6567 257° West 518 596 40,000  Level Indianapolis Center
10:00AM 38.5344 -80.8358 256° West 517 595 40,000  Level Indianapolis Center
10:01AM 38.5000 -81.0156 256° West 518 596 40,000  Level Indianapolis Center
10:02AM 38.4636 -81.1958 256° West 520 598 40,000  Level Indianapolis Center
10:03AM 38.4275 -81.3761 256° West 519 597 40,000  Level Indianapolis Center
10:04AM 38.3922 -81.5558 256° West 517 595 40,000  Level Indianapolis Center
10:05AM 38.3478 -81.7667 255° West 508 585 40,000  Level Indianapolis Center
10:06AM 38.3011 -81.9397 251° West 516 594 40,000  Level Indianapolis Center
10:07AM 38.2522 -82.1122 250° West 517 595 40,000  Level Indianapolis Center
10:08AM 38.2044 -82.2881 251° West 523 602 40,000  Level Indianapolis Center
10:09AM 38.1544 -82.4633 250° West 528 608 40,000  Level Indianapolis Center
10:10AM 38.1014 -82.6447 250° West 531 611 40,000  Level Indianapolis Center
10:11AM 38.0497 -82.8236 250° West 541 623 40,000  Level Indianapolis Center
10:13AM 37.9892 -83.0339 250° West 547 629 40,000 -300 Level Indianapolis Center
10:14AM 37.9375 -83.2122 250° West 542 624 39,500 -780 Descending Indianapolis Center
10:15AM 37.8858 -83.3875 250° West 534 615 38,500 -780 Descending Indianapolis Center
10:16AM 37.8328 -83.5600 249° West 530 610 38,000 -300 Descending Indianapolis Center
10:17AM 37.7550 -83.7622 244° Southwest 548 631 38,000  Level Indianapolis Center
10:18AM 37.6789 -83.9275 240° Southwest 549 632 38,000  Level Indianapolis Center
10:19AM 37.6153 -84.0994 245° Southwest 543 625 38,000  Level Indianapolis Center
10:20AM 37.5625 -84.2744 249° West 536 617 38,000  Level Indianapolis Center
10:21AM 37.5086 -84.4486 249° West 534 615 38,000  Level Indianapolis Center
10:22AM 37.4522 -84.6244 248° West 538 619 38,000  Level Indianapolis Center
10:23AM 37.3875 -84.8278 248° West 537 618 38,000  Level Indianapolis Center
10:24AM 37.3319 -85.0019 248° West 538 619 38,000  Level Indianapolis Center
10:25AM 37.2761 -85.1758 248° West 537 618 38,000  Level Indianapolis Center
10:26AM 37.2197 -85.3497 248° West 538 619 38,000  Level Indianapolis Center
10:27AM 37.1589 -85.5417 248° West 534 615 38,000  Level Indianapolis Center
10:28AM 37.1028 -85.7133 248° West 530 610 38,000  Level Indianapolis Center
10:29AM 37.0450 -85.8836 247° West 526 605 38,000  Level Indianapolis Center
10:30AM 36.9892 -86.0550 248° West 528 608 38,000  Level Indianapolis Center
10:31AM 36.9328 -86.2264 248° West 529 609 38,000  Level Indianapolis Center
10:32AM 36.8775 -86.3917 247° West 516 594 38,000  Level Indianapolis Center
10:33AM 36.8256 -86.5519 248° West 517 595 38,000  Level Memphis Center
10:34AM 36.7700 -86.7178 247° West 517 595 38,000  Level Memphis Center
10:35AM 36.7106 -86.8964 247° West 517 595 38,000  Level Memphis Center
10:36AM 36.6525 -87.0619 246° West 526 605 38,000  Level Memphis Center
10:37AM 36.5964 -87.2269 247° West 520 598 38,000  Level Memphis Center
10:38AM 36.5381 -87.3947 247° West 520 598 38,000  Level Memphis Center
10:39AM 36.4792 -87.5594 246° West 520 598 38,000  Level Memphis Center
10:40AM 36.4225 -87.7264 247° West 520 598 38,000  Level Memphis Center
10:41AM 36.3653 -87.8906 247° West 520 598 38,000  Level Memphis Center
10:42AM 36.3061 -88.0572 246° West 526 605 38,000  Level Memphis Center
10:43AM 36.2483 -88.2158 246° West 520 598 38,000  Level Memphis Center
10:44AM 36.1886 -88.3844 246° West 525 604 38,000  Level Memphis Center
10:45AM 36.1408 -88.5167 246° West 525 604 38,000  Level Memphis Center
10:46AM 36.0744 -88.6956 245° Southwest 525 604 38,000  Level Memphis Center
10:47AM 36.0119 -88.8661 246° West 530 610 38,000  Level Memphis Center
10:48AM 35.9514 -89.0286 245° Southwest 530 610 38,000  Level Memphis Center
10:49AM 35.8903 -89.1964 246° West 530 610 38,000  Level Memphis Center
10:50AM 35.8292 -89.3636 246° West 530 610 38,000  Level Memphis Center
10:51AM 35.7681 -89.5281 245° Southwest 530 610 38,000  Level Memphis Center
10:52AM 35.7044 -89.6950 245° Southwest 530 610 38,000 -600 Level Memphis Center
10:53AM 35.6467 -89.8742 248° West 530 610 36,900 -1,260 Descending Memphis Center
10:54AM 35.5847 -90.0378 245° Southwest 525 604 35,500 -1,380 Descending Memphis Center
10:55AM 35.5203 -90.2067 245° Southwest 525 604 34,200 -1,560 Descending Memphis Center
10:56AM 35.4119 -90.3239 221° Southwest 525 604 32,400 -1,560 Descending Memphis Center
10:57AM 35.2661 -90.3622 192° South 501 577 31,100 -1,260 Descending Memphis Center
10:58AM 35.1178 -90.4028 193° South 529 609 29,900 -1,440 Descending Memphis Center
10:59AM 34.9864 -90.4864 208° Southwest 538 619 28,300 -1,860 Descending Memphis Center
11:00AM 34.9214 -90.6408 243° Southwest 525 604 26,200 -2,400 Descending Memphis Center
11:01AM 34.8961 -90.8053 259° West 478 550 23,500 -2,400 Descending Memphis Center
11:02AM 34.9225 -90.9522 282° West 445 512 21,400 -2,160 Descending Memphis Center
11:03AM 34.9761 -91.0667 300° West 435 501 19,200 -2,160 Descending Memphis Center
11:04AM 35.0400 -91.1967 301° West 447 514 17,100 -2,340 Descending Memphis Center
11:05AM 35.0706 -91.3161 287° West 427 491 15,200 -2,820 Descending Memphis Center
11:06AM 35.0317 -91.4678 253° West 386 444 11,500 -2,400 Descending Memphis Center
11:07AM 34.9911 -91.5661 243° Southwest 359 413 10,200 -960 Descending Memphis Center
11:08AM 34.9669 -91.6747 255° West 344 396 9,600 -1,200 Descending Memphis Center
11:09AM 34.9433 -91.7478 249° West 259 298 7,900 -1,800 Descending Memphis Center
11:10AM 34.9172 -91.8489 253° West 281 323 6,100 -960 Descending Memphis Center
11:11AM 34.8975 -91.9169 251° West 257 296 6,000 -960 Descending Memphis Center
11:12AM 34.8778 -92.0000 254° West 248 285 4,400 -1,440 Descending Memphis Center
11:13AM 34.8497 -92.0703 244° Southwest 244 281 3,200 -1,020 Descending Memphis Center
11:14AM 34.8069 -92.1300 229° Southwest 211 243 2,400 -900 Descending Memphis Center
11:15AM 34.7667 -92.1797 225° Southwest 151 174 1,200 -900 Descending Memphis Center
11:16AM 34.7456 -92.2072 227° Southwest 122 140 600 -780 Descending Memphis Center
11:21AM 34.7294 -92.2248 241° Southwest  Level Estimated
11:28AM 34.7294 -92.2248 241° Southwest  Level Estimated
11:29AM 34.7294 -92.2248 241° Southwest  Level Estimated
11:30AM 34.7294 -92.2248 241° Southwest  Level Estimated
11:31AM 34.7294 -92.2248 241° Southwest  Level Estimated